sensor_id;sensor_type;location;lat;lon;timestamp;P1;durP1;ratioP1;P2;durP2;ratioP2
30723;SDS011;17473;52.286;20.930;2023-02-28T00:01:32;53.40;;;24.43;;
30723;SDS011;17473;52.286;20.930;2023-02-28T00:03:59;48.43;;;22.93;;
30723;SDS011;17473;52.286;20.930;2023-02-28T00:06:26;43.77;;;21.20;;
30723;SDS011;17473;52.286;20.930;2023-02-28T00:08:54;45.27;;;21.77;;
30723;SDS011;17473;52.286;20.930;2023-02-28T00:11:21;43.30;;;21.80;;
30723;SDS011;17473;52.286;20.930;2023-02-28T00:13:48;40.23;;;19.63;;
30723;SDS011;17473;52.286;20.930;2023-02-28T00:16:19;40.23;;;19.27;;
30723;SDS011;17473;52.286;20.930;2023-02-28T00:18:48;44.57;;;20.07;;
30723;SDS011;17473;52.286;20.930;2023-02-28T00:21:16;46.63;;;19.50;;
30723;SDS011;17473;52.286;20.930;2023-02-28T00:23:45;36.90;;;16.57;;
30723;SDS011;17473;52.286;20.930;2023-02-28T00:26:13;34.23;;;16.70;;
30723;SDS011;17473;52.286;20.930;2023-02-28T00:28:40;32.17;;;17.30;;
30723;SDS011;17473;52.286;20.930;2023-02-28T00:31:08;37.80;;;16.97;;
30723;SDS011;17473;52.286;20.930;2023-02-28T00:33:35;33.10;;;16.50;;
30723;SDS011;17473;52.286;20.930;2023-02-28T00:36:03;36.53;;;16.37;;
30723;SDS011;17473;52.286;20.930;2023-02-28T00:38:33;35.47;;;16.37;;
30723;SDS011;17473;52.286;20.930;2023-02-28T00:41:01;34.93;;;15.90;;
30723;SDS011;17473;52.286;20.930;2023-02-28T00:43:31;32.43;;;15.47;;
30723;SDS011;17473;52.286;20.930;2023-02-28T00:46:04;35.13;;;15.70;;
30723;SDS011;17473;52.286;20.930;2023-02-28T00:48:31;32.40;;;16.10;;
30723;SDS011;17473;52.286;20.930;2023-02-28T00:50:59;30.93;;;15.40;;
30723;SDS011;17473;52.286;20.930;2023-02-28T00:53:26;32.40;;;16.43;;
30723;SDS011;17473;52.286;20.930;2023-02-28T00:55:54;28.23;;;15.30;;
30723;SDS011;17473;52.286;20.930;2023-02-28T00:58:21;30.97;;;16.03;;
30723;SDS011;17473;52.286;20.930;2023-02-28T01:00:48;34.80;;;17.07;;
30723;SDS011;17473;52.286;20.930;2023-02-28T01:03:18;32.60;;;15.93;;
30723;SDS011;17473;52.286;20.930;2023-02-28T01:05:46;35.20;;;16.63;;
30723;SDS011;17473;52.286;20.930;2023-02-28T01:08:13;35.40;;;17.23;;
30723;SDS011;17473;52.286;20.930;2023-02-28T01:10:41;32.50;;;16.17;;
30723;SDS011;17473;52.286;20.930;2023-02-28T01:13:08;31.90;;;16.23;;
30723;SDS011;17473;52.286;20.930;2023-02-28T01:15:36;36.40;;;15.67;;
30723;SDS011;17473;52.286;20.930;2023-02-28T01:18:04;37.17;;;16.23;;
30723;SDS011;17473;52.286;20.930;2023-02-28T01:20:31;29.37;;;15.67;;
30723;SDS011;17473;52.286;20.930;2023-02-28T01:22:58;38.10;;;17.67;;
30723;SDS011;17473;52.286;20.930;2023-02-28T01:25:26;33.00;;;16.43;;
30723;SDS011;17473;52.286;20.930;2023-02-28T01:27:53;28.70;;;15.87;;
30723;SDS011;17473;52.286;20.930;2023-02-28T01:30:20;27.77;;;15.67;;
30723;SDS011;17473;52.286;20.930;2023-02-28T01:32:47;35.40;;;15.43;;
30723;SDS011;17473;52.286;20.930;2023-02-28T01:35:14;26.87;;;14.23;;
30723;SDS011;17473;52.286;20.930;2023-02-28T01:37:41;31.77;;;15.77;;
30723;SDS011;17473;52.286;20.930;2023-02-28T01:40:08;32.43;;;14.60;;
30723;SDS011;17473;52.286;20.930;2023-02-28T01:42:36;33.33;;;15.43;;
30723;SDS011;17473;52.286;20.930;2023-02-28T01:45:07;36.77;;;16.93;;
30723;SDS011;17473;52.286;20.930;2023-02-28T01:47:44;35.70;;;15.97;;
30723;SDS011;17473;52.286;20.930;2023-02-28T01:50:16;34.10;;;15.93;;
30723;SDS011;17473;52.286;20.930;2023-02-28T01:52:48;31.13;;;15.20;;
30723;SDS011;17473;52.286;20.930;2023-02-28T01:55:19;37.60;;;17.47;;
30723;SDS011;17473;52.286;20.930;2023-02-28T01:57:50;32.63;;;16.00;;
30723;SDS011;17473;52.286;20.930;2023-02-28T02:00:21;34.90;;;16.07;;
30723;SDS011;17473;52.286;20.930;2023-02-28T02:02:54;29.50;;;15.73;;
30723;SDS011;17473;52.286;20.930;2023-02-28T02:05:26;31.67;;;16.33;;
30723;SDS011;17473;52.286;20.930;2023-02-28T02:08:03;32.37;;;15.53;;
30723;SDS011;17473;52.286;20.930;2023-02-28T02:13:37;31.00;;;15.53;;
30723;SDS011;17473;52.286;20.930;2023-02-28T02:22:59;34.13;;;16.13;;
30723;SDS011;17473;52.286;20.930;2023-02-28T02:34:39;39.70;;;18.00;;
30723;SDS011;17473;52.286;20.930;2023-02-28T02:39:53;33.23;;;15.73;;
30723;SDS011;17473;52.286;20.930;2023-02-28T02:42:56;34.67;;;15.17;;
30723;SDS011;17473;52.286;20.930;2023-02-28T02:45:32;35.13;;;16.97;;
30723;SDS011;17473;52.286;20.930;2023-02-28T02:48:06;42.27;;;16.60;;
30723;SDS011;17473;52.286;20.930;2023-02-28T02:50:41;36.10;;;16.50;;
30723;SDS011;17473;52.286;20.930;2023-02-28T02:53:12;37.30;;;17.23;;
30723;SDS011;17473;52.286;20.930;2023-02-28T02:55:45;37.53;;;16.93;;
30723;SDS011;17473;52.286;20.930;2023-02-28T02:58:20;31.20;;;17.27;;
30723;SDS011;17473;52.286;20.930;2023-02-28T03:00:56;32.23;;;16.67;;
30723;SDS011;17473;52.286;20.930;2023-02-28T03:03:26;33.07;;;17.07;;
30723;SDS011;17473;52.286;20.930;2023-02-28T03:05:59;31.97;;;16.77;;
30723;SDS011;17473;52.286;20.930;2023-02-28T03:08:28;37.97;;;17.73;;
30723;SDS011;17473;52.286;20.930;2023-02-28T03:11:00;40.17;;;18.77;;
30723;SDS011;17473;52.286;20.930;2023-02-28T03:22:06;40.67;;;19.13;;
30723;SDS011;17473;52.286;20.930;2023-02-28T03:25:14;38.70;;;19.00;;
30723;SDS011;17473;52.286;20.930;2023-02-28T03:27:58;35.97;;;17.63;;
30723;SDS011;17473;52.286;20.930;2023-02-28T03:36:29;38.97;;;17.93;;
30723;SDS011;17473;52.286;20.930;2023-02-28T03:39:17;41.57;;;18.30;;
30723;SDS011;17473;52.286;20.930;2023-02-28T03:42:26;39.50;;;17.90;;
30723;SDS011;17473;52.286;20.930;2023-02-28T03:44:58;33.67;;;17.70;;
30723;SDS011;17473;52.286;20.930;2023-02-28T03:48:32;45.30;;;19.17;;
30723;SDS011;17473;52.286;20.930;2023-02-28T03:50:34;40.53;;;18.40;;
30723;SDS011;17473;52.286;20.930;2023-02-28T03:53:17;41.03;;;18.57;;
30723;SDS011;17473;52.286;20.930;2023-02-28T03:55:50;41.43;;;19.10;;
30723;SDS011;17473;52.286;20.930;2023-02-28T03:58:47;42.07;;;19.53;;
30723;SDS011;17473;52.286;20.930;2023-02-28T04:01:36;41.57;;;19.97;;
30723;SDS011;17473;52.286;20.930;2023-02-28T04:04:10;44.43;;;20.27;;
30723;SDS011;17473;52.286;20.930;2023-02-28T04:06:39;44.50;;;21.40;;
30723;SDS011;17473;52.286;20.930;2023-02-28T04:09:08;44.27;;;21.13;;
30723;SDS011;17473;52.286;20.930;2023-02-28T04:11:50;46.73;;;22.67;;
30723;SDS011;17473;52.286;20.930;2023-02-28T04:14:22;53.77;;;22.80;;
30723;SDS011;17473;52.286;20.930;2023-02-28T04:16:49;54.20;;;23.83;;
30723;SDS011;17473;52.286;20.930;2023-02-28T04:19:17;43.80;;;22.03;;
30723;SDS011;17473;52.286;20.930;2023-02-28T04:21:51;56.40;;;23.10;;
30723;SDS011;17473;52.286;20.930;2023-02-28T04:24:21;51.17;;;23.83;;
30723;SDS011;17473;52.286;20.930;2023-02-28T04:26:53;52.70;;;23.97;;
30723;SDS011;17473;52.286;20.930;2023-02-28T04:29:24;50.00;;;23.00;;
30723;SDS011;17473;52.286;20.930;2023-02-28T04:31:56;51.67;;;23.67;;
30723;SDS011;17473;52.286;20.930;2023-02-28T04:34:26;52.93;;;22.67;;
30723;SDS011;17473;52.286;20.930;2023-02-28T04:36:55;44.73;;;22.00;;
30723;SDS011;17473;52.286;20.930;2023-02-28T04:39:38;46.87;;;20.90;;
30723;SDS011;17473;52.286;20.930;2023-02-28T04:42:06;51.40;;;23.70;;
30723;SDS011;17473;52.286;20.930;2023-02-28T04:44:33;53.00;;;23.93;;
30723;SDS011;17473;52.286;20.930;2023-02-28T04:47:00;48.73;;;23.27;;
30723;SDS011;17473;52.286;20.930;2023-02-28T04:49:27;52.57;;;22.83;;
30723;SDS011;17473;52.286;20.930;2023-02-28T04:51:55;48.93;;;22.37;;
30723;SDS011;17473;52.286;20.930;2023-02-28T04:54:22;49.13;;;23.67;;
30723;SDS011;17473;52.286;20.930;2023-02-28T04:56:49;45.67;;;21.63;;
30723;SDS011;17473;52.286;20.930;2023-02-28T04:59:16;54.37;;;23.00;;
30723;SDS011;17473;52.286;20.930;2023-02-28T05:01:47;49.27;;;22.67;;
30723;SDS011;17473;52.286;20.930;2023-02-28T05:04:15;52.50;;;23.10;;
30723;SDS011;17473;52.286;20.930;2023-02-28T05:06:43;49.27;;;22.50;;
30723;SDS011;17473;52.286;20.930;2023-02-28T05:09:11;48.00;;;23.70;;
30723;SDS011;17473;52.286;20.930;2023-02-28T05:11:38;55.83;;;22.77;;
30723;SDS011;17473;52.286;20.930;2023-02-28T05:14:08;45.17;;;21.33;;
30723;SDS011;17473;52.286;20.930;2023-02-28T05:16:40;46.63;;;20.60;;
30723;SDS011;17473;52.286;20.930;2023-02-28T05:19:07;43.80;;;19.27;;
30723;SDS011;17473;52.286;20.930;2023-02-28T05:21:35;46.07;;;20.80;;
30723;SDS011;17473;52.286;20.930;2023-02-28T05:24:06;42.70;;;19.67;;
30723;SDS011;17473;52.286;20.930;2023-02-28T05:26:37;38.40;;;17.93;;
30723;SDS011;17473;52.286;20.930;2023-02-28T05:29:08;41.10;;;19.80;;
30723;SDS011;17473;52.286;20.930;2023-02-28T05:31:36;41.00;;;18.23;;
30723;SDS011;17473;52.286;20.930;2023-02-28T05:34:03;41.17;;;18.33;;
30723;SDS011;17473;52.286;20.930;2023-02-28T05:36:31;36.23;;;18.53;;
30723;SDS011;17473;52.286;20.930;2023-02-28T05:38:58;28.00;;;14.37;;
30723;SDS011;17473;52.286;20.930;2023-02-28T05:41:25;34.17;;;15.27;;
30723;SDS011;17473;52.286;20.930;2023-02-28T05:43:53;25.70;;;13.57;;
30723;SDS011;17473;52.286;20.930;2023-02-28T05:46:21;26.33;;;14.70;;
30723;SDS011;17473;52.286;20.930;2023-02-28T05:48:48;30.47;;;13.23;;
30723;SDS011;17473;52.286;20.930;2023-02-28T05:51:15;25.13;;;12.17;;
30723;SDS011;17473;52.286;20.930;2023-02-28T05:53:43;28.60;;;13.77;;
30723;SDS011;17473;52.286;20.930;2023-02-28T05:56:11;26.43;;;13.80;;
30723;SDS011;17473;52.286;20.930;2023-02-28T05:58:38;28.00;;;14.03;;
30723;SDS011;17473;52.286;20.930;2023-02-28T06:01:21;26.93;;;12.93;;
30723;SDS011;17473;52.286;20.930;2023-02-28T06:04:06;24.17;;;12.10;;
30723;SDS011;17473;52.286;20.930;2023-02-28T06:06:47;27.30;;;12.77;;
30723;SDS011;17473;52.286;20.930;2023-02-28T06:09:16;25.20;;;12.40;;
30723;SDS011;17473;52.286;20.930;2023-02-28T06:11:44;28.43;;;12.33;;
30723;SDS011;17473;52.286;20.930;2023-02-28T06:14:14;25.83;;;12.20;;
30723;SDS011;17473;52.286;20.930;2023-02-28T06:16:44;27.23;;;13.10;;
30723;SDS011;17473;52.286;20.930;2023-02-28T06:19:12;25.53;;;13.20;;
30723;SDS011;17473;52.286;20.930;2023-02-28T06:21:39;25.07;;;12.87;;
30723;SDS011;17473;52.286;20.930;2023-02-28T06:24:07;32.50;;;14.73;;
30723;SDS011;17473;52.286;20.930;2023-02-28T06:26:35;24.23;;;13.27;;
30723;SDS011;17473;52.286;20.930;2023-02-28T06:29:03;28.30;;;13.00;;
30723;SDS011;17473;52.286;20.930;2023-02-28T06:31:30;28.43;;;12.87;;
30723;SDS011;17473;52.286;20.930;2023-02-28T06:33:58;24.67;;;12.20;;
30723;SDS011;17473;52.286;20.930;2023-02-28T06:36:25;26.30;;;13.00;;
30723;SDS011;17473;52.286;20.930;2023-02-28T06:38:52;26.07;;;11.23;;
30723;SDS011;17473;52.286;20.930;2023-02-28T06:41:22;26.93;;;14.33;;
30723;SDS011;17473;52.286;20.930;2023-02-28T06:43:51;25.17;;;11.77;;
30723;SDS011;17473;52.286;20.930;2023-02-28T06:46:19;25.20;;;10.80;;
30723;SDS011;17473;52.286;20.930;2023-02-28T06:48:47;24.07;;;11.10;;
30723;SDS011;17473;52.286;20.930;2023-02-28T06:51:16;17.87;;;10.03;;
30723;SDS011;17473;52.286;20.930;2023-02-28T06:53:50;17.13;;;9.07;;
30723;SDS011;17473;52.286;20.930;2023-02-28T06:56:18;23.67;;;9.67;;
30723;SDS011;17473;52.286;20.930;2023-02-28T06:58:47;18.70;;;10.57;;
30723;SDS011;17473;52.286;20.930;2023-02-28T07:01:16;17.43;;;9.13;;
30723;SDS011;17473;52.286;20.930;2023-02-28T07:03:45;21.10;;;10.60;;
30723;SDS011;17473;52.286;20.930;2023-02-28T07:06:12;21.13;;;9.80;;
30723;SDS011;17473;52.286;20.930;2023-02-28T07:08:40;20.23;;;10.07;;
30723;SDS011;17473;52.286;20.930;2023-02-28T07:11:07;17.70;;;9.90;;
30723;SDS011;17473;52.286;20.930;2023-02-28T07:13:34;16.77;;;8.97;;
30723;SDS011;17473;52.286;20.930;2023-02-28T07:16:04;18.97;;;9.93;;
30723;SDS011;17473;52.286;20.930;2023-02-28T07:18:35;15.80;;;9.50;;
30723;SDS011;17473;52.286;20.930;2023-02-28T07:21:03;18.80;;;10.07;;
30723;SDS011;17473;52.286;20.930;2023-02-28T07:23:33;19.90;;;9.17;;
30723;SDS011;17473;52.286;20.930;2023-02-28T07:26:00;18.67;;;7.70;;
30723;SDS011;17473;52.286;20.930;2023-02-28T07:28:28;21.23;;;8.80;;
30723;SDS011;17473;52.286;20.930;2023-02-28T07:30:55;15.93;;;8.70;;
30723;SDS011;17473;52.286;20.930;2023-02-28T07:33:22;13.68;;;8.35;;
30723;SDS011;17473;52.286;20.930;2023-02-28T07:35:50;15.10;;;8.43;;
30723;SDS011;17473;52.286;20.930;2023-02-28T07:38:17;12.60;;;7.80;;
30723;SDS011;17473;52.286;20.930;2023-02-28T07:40:44;12.00;;;6.78;;
30723;SDS011;17473;52.286;20.930;2023-02-28T07:43:11;11.55;;;6.72;;
30723;SDS011;17473;52.286;20.930;2023-02-28T07:45:39;9.38;;;6.43;;
30723;SDS011;17473;52.286;20.930;2023-02-28T07:48:06;11.98;;;6.32;;
30723;SDS011;17473;52.286;20.930;2023-02-28T07:50:36;11.05;;;5.80;;
30723;SDS011;17473;52.286;20.930;2023-02-28T07:53:03;11.50;;;7.35;;
30723;SDS011;17473;52.286;20.930;2023-02-28T07:55:31;9.80;;;6.43;;
30723;SDS011;17473;52.286;20.930;2023-02-28T07:57:58;10.88;;;6.13;;
30723;SDS011;17473;52.286;20.930;2023-02-28T08:00:25;9.55;;;6.38;;
30723;SDS011;17473;52.286;20.930;2023-02-28T08:02:52;11.38;;;6.22;;
30723;SDS011;17473;52.286;20.930;2023-02-28T08:05:19;9.70;;;5.70;;
30723;SDS011;17473;52.286;20.930;2023-02-28T08:07:48;12.05;;;5.68;;
30723;SDS011;17473;52.286;20.930;2023-02-28T08:10:16;12.02;;;5.10;;
30723;SDS011;17473;52.286;20.930;2023-02-28T08:12:43;7.88;;;5.03;;
30723;SDS011;17473;52.286;20.930;2023-02-28T08:15:10;7.70;;;4.80;;
30723;SDS011;17473;52.286;20.930;2023-02-28T08:17:37;13.40;;;5.28;;
30723;SDS011;17473;52.286;20.930;2023-02-28T08:20:05;7.75;;;4.65;;
30723;SDS011;17473;52.286;20.930;2023-02-28T08:22:33;21.17;;;5.93;;
30723;SDS011;17473;52.286;20.930;2023-02-28T08:25:00;14.52;;;5.40;;
30723;SDS011;17473;52.286;20.930;2023-02-28T08:27:27;14.13;;;5.25;;
30723;SDS011;17473;52.286;20.930;2023-02-28T08:29:54;13.95;;;5.60;;
30723;SDS011;17473;52.286;20.930;2023-02-28T08:32:21;16.55;;;5.63;;
30723;SDS011;17473;52.286;20.930;2023-02-28T08:34:55;17.42;;;6.32;;
30723;SDS011;17473;52.286;20.930;2023-02-28T08:37:23;14.02;;;5.97;;
30723;SDS011;17473;52.286;20.930;2023-02-28T08:39:50;10.90;;;5.68;;
30723;SDS011;17473;52.286;20.930;2023-02-28T08:42:21;7.15;;;4.88;;
30723;SDS011;17473;52.286;20.930;2023-02-28T08:44:49;9.00;;;5.63;;
30723;SDS011;17473;52.286;20.930;2023-02-28T08:47:16;9.57;;;5.45;;
30723;SDS011;17473;52.286;20.930;2023-02-28T08:49:43;9.50;;;5.15;;
30723;SDS011;17473;52.286;20.930;2023-02-28T08:52:10;9.48;;;4.88;;
30723;SDS011;17473;52.286;20.930;2023-02-28T08:54:37;9.95;;;5.65;;
30723;SDS011;17473;52.286;20.930;2023-02-28T08:57:04;9.55;;;5.82;;
30723;SDS011;17473;52.286;20.930;2023-02-28T08:59:31;12.55;;;5.60;;
30723;SDS011;17473;52.286;20.930;2023-02-28T09:01:58;10.13;;;5.90;;
30723;SDS011;17473;52.286;20.930;2023-02-28T09:04:25;17.10;;;6.18;;
30723;SDS011;17473;52.286;20.930;2023-02-28T09:06:53;7.93;;;5.47;;
30723;SDS011;17473;52.286;20.930;2023-02-28T09:09:20;7.60;;;5.22;;
30723;SDS011;17473;52.286;20.930;2023-02-28T09:11:47;10.93;;;5.45;;
30723;SDS011;17473;52.286;20.930;2023-02-28T09:14:14;10.45;;;5.90;;
30723;SDS011;17473;52.286;20.930;2023-02-28T09:16:43;7.13;;;5.57;;
30723;SDS011;17473;52.286;20.930;2023-02-28T09:19:11;9.98;;;5.38;;
30723;SDS011;17473;52.286;20.930;2023-02-28T09:21:38;13.38;;;5.82;;
30723;SDS011;17473;52.286;20.930;2023-02-28T09:24:06;13.18;;;6.45;;
30723;SDS011;17473;52.286;20.930;2023-02-28T09:26:34;12.27;;;5.75;;
30723;SDS011;17473;52.286;20.930;2023-02-28T09:29:12;10.07;;;5.75;;
30723;SDS011;17473;52.286;20.930;2023-02-28T09:31:40;10.48;;;5.60;;
30723;SDS011;17473;52.286;20.930;2023-02-28T09:34:07;11.23;;;6.15;;
30723;SDS011;17473;52.286;20.930;2023-02-28T09:36:35;17.27;;;6.53;;
30723;SDS011;17473;52.286;20.930;2023-02-28T09:39:11;14.75;;;5.90;;
30723;SDS011;17473;52.286;20.930;2023-02-28T09:41:42;12.38;;;7.07;;
30723;SDS011;17473;52.286;20.930;2023-02-28T09:47:44;13.00;;;6.65;;
30723;SDS011;17473;52.286;20.930;2023-02-28T09:52:56;10.93;;;6.22;;
30723;SDS011;17473;52.286;20.930;2023-02-28T09:58:18;10.73;;;6.20;;
30723;SDS011;17473;52.286;20.930;2023-02-28T10:01:18;10.20;;;6.25;;
30723;SDS011;17473;52.286;20.930;2023-02-28T10:03:56;18.80;;;8.18;;
30723;SDS011;17473;52.286;20.930;2023-02-28T10:06:44;10.30;;;6.30;;
30723;SDS011;17473;52.286;20.930;2023-02-28T10:09:18;13.85;;;6.97;;
30723;SDS011;17473;52.286;20.930;2023-02-28T10:11:57;14.07;;;6.75;;
30723;SDS011;17473;52.286;20.930;2023-02-28T10:14:33;17.60;;;7.53;;
30723;SDS011;17473;52.286;20.930;2023-02-28T10:17:02;20.42;;;7.65;;
30723;SDS011;17473;52.286;20.930;2023-02-28T10:19:56;16.38;;;6.60;;
30723;SDS011;17473;52.286;20.930;2023-02-28T10:23:02;17.98;;;6.63;;
30723;SDS011;17473;52.286;20.930;2023-02-28T10:25:55;23.80;;;6.95;;
30723;SDS011;17473;52.286;20.930;2023-02-28T10:28:27;19.13;;;6.85;;
30723;SDS011;17473;52.286;20.930;2023-02-28T10:30:57;12.98;;;7.38;;
30723;SDS011;17473;52.286;20.930;2023-02-28T10:33:28;19.80;;;7.30;;
30723;SDS011;17473;52.286;20.930;2023-02-28T10:36:01;10.68;;;6.97;;
30723;SDS011;17473;52.286;20.930;2023-02-28T10:38:33;9.80;;;6.82;;
30723;SDS011;17473;52.286;20.930;2023-02-28T10:43:36;23.52;;;7.85;;
30723;SDS011;17473;52.286;20.930;2023-02-28T10:51:16;15.63;;;7.38;;
30723;SDS011;17473;52.286;20.930;2023-02-28T10:56:28;12.18;;;8.20;;
30723;SDS011;17473;52.286;20.930;2023-02-28T10:59:01;11.82;;;8.32;;
30723;SDS011;17473;52.286;20.930;2023-02-28T11:01:38;12.00;;;7.20;;
30723;SDS011;17473;52.286;20.930;2023-02-28T11:04:19;11.30;;;7.35;;
30723;SDS011;17473;52.286;20.930;2023-02-28T11:09:50;15.73;;;7.72;;
30723;SDS011;17473;52.286;20.930;2023-02-28T11:12:25;13.15;;;7.35;;
30723;SDS011;17473;52.286;20.930;2023-02-28T11:15:21;19.08;;;7.82;;
30723;SDS011;17473;52.286;20.930;2023-02-28T11:18:04;20.17;;;8.38;;
30723;SDS011;17473;52.286;20.930;2023-02-28T11:20:38;14.23;;;7.38;;
30723;SDS011;17473;52.286;20.930;2023-02-28T11:23:09;18.20;;;8.13;;
30723;SDS011;17473;52.286;20.930;2023-02-28T11:25:40;12.73;;;7.88;;
30723;SDS011;17473;52.286;20.930;2023-02-28T11:31:03;14.40;;;8.70;;
30723;SDS011;17473;52.286;20.930;2023-02-28T11:33:50;12.93;;;7.10;;
30723;SDS011;17473;52.286;20.930;2023-02-28T11:38:57;13.05;;;8.48;;
30723;SDS011;17473;52.286;20.930;2023-02-28T11:46:59;10.98;;;8.02;;
30723;SDS011;17473;52.286;20.930;2023-02-28T11:52:29;16.58;;;9.27;;
30723;SDS011;17473;52.286;20.930;2023-02-28T12:04:02;16.40;;;9.02;;
30723;SDS011;17473;52.286;20.930;2023-02-28T12:15:21;19.52;;;9.55;;
30723;SDS011;17473;52.286;20.930;2023-02-28T12:21:14;19.30;;;9.15;;
30723;SDS011;17473;52.286;20.930;2023-02-28T12:24:28;15.48;;;9.10;;
30723;SDS011;17473;52.286;20.930;2023-02-28T12:27:09;13.35;;;9.00;;
30723;SDS011;17473;52.286;20.930;2023-02-28T12:32:43;17.13;;;8.82;;
30723;SDS011;17473;52.286;20.930;2023-02-28T12:35:31;14.73;;;8.60;;
30723;SDS011;17473;52.286;20.930;2023-02-28T12:38:17;12.73;;;8.27;;
30723;SDS011;17473;52.286;20.930;2023-02-28T12:43:32;12.27;;;8.52;;
30723;SDS011;17473;52.286;20.930;2023-02-28T12:46:17;20.40;;;8.70;;
30723;SDS011;17473;52.286;20.930;2023-02-28T12:48:57;15.13;;;9.05;;
30723;SDS011;17473;52.286;20.930;2023-02-28T12:51:31;16.40;;;9.68;;
30723;SDS011;17473;52.286;20.930;2023-02-28T12:54:19;11.48;;;8.18;;
30723;SDS011;17473;52.286;20.930;2023-02-28T13:00:03;17.23;;;8.43;;
30723;SDS011;17473;52.286;20.930;2023-02-28T13:09:20;24.45;;;8.93;;
30723;SDS011;17473;52.286;20.930;2023-02-28T13:11:48;25.35;;;9.85;;
30723;SDS011;17473;52.286;20.930;2023-02-28T13:17:09;26.50;;;9.73;;
30723;SDS011;17473;52.286;20.930;2023-02-28T13:19:55;28.67;;;9.60;;
30723;SDS011;17473;52.286;20.930;2023-02-28T13:25:01;17.60;;;8.90;;
30723;SDS011;17473;52.286;20.930;2023-02-28T13:27:33;14.32;;;8.23;;
30723;SDS011;17473;52.286;20.930;2023-02-28T13:33:30;13.82;;;7.80;;
30723;SDS011;17473;52.286;20.930;2023-02-28T13:38:47;15.13;;;8.73;;
30723;SDS011;17473;52.286;20.930;2023-02-28T13:41:47;16.83;;;7.90;;
30723;SDS011;17473;52.286;20.930;2023-02-28T13:44:16;18.63;;;8.40;;
30723;SDS011;17473;52.286;20.930;2023-02-28T13:49:33;14.18;;;8.63;;
30723;SDS011;17473;52.286;20.930;2023-02-28T14:06:59;14.85;;;8.70;;
30723;SDS011;17473;52.286;20.930;2023-02-28T14:09:29;15.05;;;7.75;;
30723;SDS011;17473;52.286;20.930;2023-02-28T14:12:49;13.10;;;7.88;;
30723;SDS011;17473;52.286;20.930;2023-02-28T14:18:14;16.50;;;7.68;;
30723;SDS011;17473;52.286;20.930;2023-02-28T14:20:52;22.92;;;9.02;;
30723;SDS011;17473;52.286;20.930;2023-02-28T14:24:03;22.75;;;8.48;;
30723;SDS011;17473;52.286;20.930;2023-02-28T14:41:35;19.48;;;9.10;;
30723;SDS011;17473;52.286;20.930;2023-02-28T14:44:22;19.77;;;8.23;;
30723;SDS011;17473;52.286;20.930;2023-02-28T14:46:57;16.33;;;8.57;;
30723;SDS011;17473;52.286;20.930;2023-02-28T14:49:35;14.43;;;8.27;;
30723;SDS011;17473;52.286;20.930;2023-02-28T14:55:12;20.10;;;8.82;;
30723;SDS011;17473;52.286;20.930;2023-02-28T14:58:50;15.73;;;8.63;;
30723;SDS011;17473;52.286;20.930;2023-02-28T15:00:56;15.17;;;8.30;;
30723;SDS011;17473;52.286;20.930;2023-02-28T15:06:04;16.70;;;9.07;;
30723;SDS011;17473;52.286;20.930;2023-02-28T15:08:39;15.37;;;8.53;;
30723;SDS011;17473;52.286;20.930;2023-02-28T15:13:49;15.27;;;8.73;;
30723;SDS011;17473;52.286;20.930;2023-02-28T15:16:24;15.60;;;8.87;;
30723;SDS011;17473;52.286;20.930;2023-02-28T15:18:54;14.20;;;8.60;;
30723;SDS011;17473;52.286;20.930;2023-02-28T15:21:38;15.07;;;8.57;;
30723;SDS011;17473;52.286;20.930;2023-02-28T15:26:55;17.77;;;9.43;;
30723;SDS011;17473;52.286;20.930;2023-02-28T15:29:27;19.47;;;9.80;;
30723;SDS011;17473;52.286;20.930;2023-02-28T15:32:05;15.67;;;9.47;;
30723;SDS011;17473;52.286;20.930;2023-02-28T15:34:41;17.83;;;10.40;;
30723;SDS011;17473;52.286;20.930;2023-02-28T15:37:30;15.93;;;10.30;;
30723;SDS011;17473;52.286;20.930;2023-02-28T15:40:15;17.77;;;10.47;;
30723;SDS011;17473;52.286;20.930;2023-02-28T15:45:56;18.87;;;10.97;;
30723;SDS011;17473;52.286;20.930;2023-02-28T15:51:21;17.67;;;10.73;;
30723;SDS011;17473;52.286;20.930;2023-02-28T15:53:58;21.97;;;11.07;;
30723;SDS011;17473;52.286;20.930;2023-02-28T15:56:32;16.80;;;10.60;;
30723;SDS011;17473;52.286;20.930;2023-02-28T15:59:14;17.90;;;11.33;;
30723;SDS011;17473;52.286;20.930;2023-02-28T16:04:36;28.67;;;11.53;;
30723;SDS011;17473;52.286;20.930;2023-02-28T16:07:20;25.90;;;11.87;;
30723;SDS011;17473;52.286;20.930;2023-02-28T16:09:47;21.17;;;11.70;;
30723;SDS011;17473;52.286;20.930;2023-02-28T16:12:14;22.67;;;12.10;;
30723;SDS011;17473;52.286;20.930;2023-02-28T16:14:41;27.10;;;13.57;;
30723;SDS011;17473;52.286;20.930;2023-02-28T16:17:21;22.90;;;12.07;;
30723;SDS011;17473;52.286;20.930;2023-02-28T16:19:52;25.07;;;13.33;;
30723;SDS011;17473;52.286;20.930;2023-02-28T16:22:20;23.00;;;13.53;;
30723;SDS011;17473;52.286;20.930;2023-02-28T16:24:48;23.03;;;12.10;;
30723;SDS011;17473;52.286;20.930;2023-02-28T16:27:20;30.07;;;13.90;;
30723;SDS011;17473;52.286;20.930;2023-02-28T16:29:56;26.47;;;13.93;;
30723;SDS011;17473;52.286;20.930;2023-02-28T16:32:23;27.27;;;13.30;;
30723;SDS011;17473;52.286;20.930;2023-02-28T16:34:51;24.90;;;14.50;;
30723;SDS011;17473;52.286;20.930;2023-02-28T16:37:18;20.90;;;13.20;;
30723;SDS011;17473;52.286;20.930;2023-02-28T16:39:45;32.57;;;14.87;;
30723;SDS011;17473;52.286;20.930;2023-02-28T16:42:16;35.27;;;15.80;;
30723;SDS011;17473;52.286;20.930;2023-02-28T16:44:55;33.60;;;15.20;;
30723;SDS011;17473;52.286;20.930;2023-02-28T16:47:22;30.13;;;15.70;;
30723;SDS011;17473;52.286;20.930;2023-02-28T16:49:49;41.87;;;17.60;;
30723;SDS011;17473;52.286;20.930;2023-02-28T16:52:16;41.63;;;17.50;;
30723;SDS011;17473;52.286;20.930;2023-02-28T16:54:43;34.67;;;17.43;;
30723;SDS011;17473;52.286;20.930;2023-02-28T16:57:17;38.00;;;17.63;;
30723;SDS011;17473;52.286;20.930;2023-02-28T16:59:49;32.27;;;18.63;;
30723;SDS011;17473;52.286;20.930;2023-02-28T17:02:19;32.67;;;17.17;;
30723;SDS011;17473;52.286;20.930;2023-02-28T17:04:47;37.33;;;17.77;;
30723;SDS011;17473;52.286;20.930;2023-02-28T17:07:15;36.63;;;18.10;;
30723;SDS011;17473;52.286;20.930;2023-02-28T17:09:43;34.30;;;18.27;;
30723;SDS011;17473;52.286;20.930;2023-02-28T17:12:12;36.97;;;17.47;;
30723;SDS011;17473;52.286;20.930;2023-02-28T17:14:52;28.38;;;15.32;;
30723;SDS011;17473;52.286;20.930;2023-02-28T17:17:20;43.33;;;17.80;;
30723;SDS011;17473;52.286;20.930;2023-02-28T17:19:47;35.43;;;17.53;;
30723;SDS011;17473;52.286;20.930;2023-02-28T17:22:15;40.57;;;18.70;;
30723;SDS011;17473;52.286;20.930;2023-02-28T17:24:42;34.70;;;18.10;;
30723;SDS011;17473;52.286;20.930;2023-02-28T17:27:11;44.77;;;18.10;;
30723;SDS011;17473;52.286;20.930;2023-02-28T17:29:39;40.83;;;17.77;;
30723;SDS011;17473;52.286;20.930;2023-02-28T17:32:08;39.40;;;19.63;;
30723;SDS011;17473;52.286;20.930;2023-02-28T17:34:43;32.73;;;16.77;;
30723;SDS011;17473;52.286;20.930;2023-02-28T17:37:12;33.17;;;17.90;;
30723;SDS011;17473;52.286;20.930;2023-02-28T17:39:39;29.20;;;15.57;;
30723;SDS011;17473;52.286;20.930;2023-02-28T17:42:06;33.37;;;15.50;;